METAR KO57 181055Z AUTO 00000KT 10SM 06/03 A3024


AIRPORT ID: O57

DATE(M/D/Y): 6/18/2019 10:55 Z 3:55 L


WIND DIRECT: 110

WIND SPEED: 0 KT

WIND CONDITIONS:

VISIBILTY: 10 SM 9999 M

TEMPERATURE: 43 F 6 C

DEW POINT: 37 F 3 C

ALTIMETER: A3024 Q1024

DENSITY ALT: 6500 FT

HUMID: 78%

LCL: Above 5,000 FT


RADIO CHECK: 0

ADVISORIES: 0

GREETINGS: 0

CONVERSATIONS: 0